Peterson, Iowa
Current Conditions -  °F | °C
As of 3:55 AM on Saturday 25 Oct 2014 (Local Time) from KCKP Reporting Station
Clear Clear  
Wind Chill: 42°   Ceiling: Unl
Heat Index: 44°   Visibility: 10mi
Dew Point: 44°   Wind: 5mph
Humidity: 100%   Direction: 50°NE
Pressure: 30.04"   Gusts: NA
Location:  42.92°N, 95.34°W
Report Text: KCKP 250855Z AUTO 05004KT 10SM CLR 07/07 A3004 RMK AO2 T00690069
Loading
Personal Weather Stations






























Interactive Weather Map
Tropical Storm Tracking
New forecast layout! Learn more

10-Day Weather Forecast

Advertisements
Track Severe Weather on mobile